createdAt,value
2017-11-09T00:00:42.118Z,5.50
2017-11-09T00:03:10.592Z,5.60
2017-11-09T00:05:44.455Z,5.60
2017-11-09T00:08:13.276Z,5.60
2017-11-09T00:10:41.753Z,5.60
2017-11-09T00:13:10.256Z,5.50
2017-11-09T00:15:38.729Z,5.50
2017-11-09T00:18:07.304Z,5.50
2017-11-09T00:20:36.549Z,5.50
2017-11-09T00:23:05.044Z,5.40
2017-11-09T00:25:33.515Z,5.50
2017-11-09T00:28:01.988Z,5.60
2017-11-09T00:30:30.480Z,5.60
2017-11-09T00:32:58.965Z,5.50
2017-11-09T00:35:27.448Z,5.50
2017-11-09T00:37:55.907Z,5.50
2017-11-09T00:40:24.392Z,5.50
2017-11-09T00:42:52.892Z,5.60
2017-11-09T00:45:21.379Z,5.60
2017-11-09T00:47:49.927Z,5.70
2017-11-09T00:50:18.687Z,5.70
2017-11-09T00:52:47.960Z,5.70
2017-11-09T00:55:16.444Z,5.70
2017-11-09T00:57:45.196Z,5.70
2017-11-09T01:00:13.665Z,5.70
2017-11-09T01:02:42.173Z,5.80
2017-11-09T01:05:10.619Z,5.80
2017-11-09T01:07:39.874Z,5.80
2017-11-09T01:10:08.337Z,5.70
2017-11-09T01:12:36.833Z,5.70
2017-11-09T01:15:05.350Z,5.80
2017-11-09T01:17:34.600Z,5.80
2017-11-09T01:20:03.185Z,5.80
2017-11-09T01:22:31.672Z,5.80
2017-11-09T01:25:00.169Z,5.80
2017-11-09T01:27:28.657Z,5.80
2017-11-09T01:29:57.171Z,5.80
2017-11-09T01:32:26.411Z,5.90
2017-11-09T01:34:54.920Z,5.80
2017-11-09T01:37:23.393Z,5.90
2017-11-09T01:39:51.883Z,5.90
2017-11-09T01:42:20.356Z,5.80
2017-11-09T01:44:48.828Z,5.80
2017-11-09T01:47:17.310Z,5.80
2017-11-09T01:49:45.796Z,5.80
2017-11-09T01:52:14.392Z,5.80
2017-11-09T01:54:42.872Z,5.80
2017-11-09T01:57:11.012Z,5.80
2017-11-09T01:59:39.505Z,5.80
2017-11-09T02:02:08.572Z,5.80
2017-11-09T02:04:37.812Z,5.80
2017-11-09T02:07:06.305Z,5.80
2017-11-09T02:09:34.537Z,5.80
2017-11-09T02:12:03.283Z,5.90
2017-11-09T02:14:32.392Z,5.90
2017-11-09T02:17:01.653Z,5.90
2017-11-09T02:19:30.140Z,5.90
2017-11-09T02:21:58.270Z,5.90
2017-11-09T02:24:26.764Z,5.90
2017-11-09T02:26:56.012Z,6.00
2017-11-09T02:29:23.962Z,5.90
2017-11-09T02:31:51.845Z,6.00
2017-11-09T02:34:20.319Z,6.00
2017-11-09T02:36:48.701Z,5.90
2017-11-09T02:39:17.184Z,6.00
2017-11-09T02:41:46.700Z,5.90
2017-11-09T02:44:15.472Z,5.90
2017-11-09T02:46:43.958Z,6.00
2017-11-09T02:49:12.444Z,6.00
2017-11-09T02:51:40.218Z,6.00
2017-11-09T02:54:08.010Z,5.90
2017-11-09T02:56:35.868Z,6.00
2017-11-09T02:59:03.908Z,5.90
2017-11-09T03:01:32.801Z,5.90
2017-11-09T03:04:01.296Z,5.90
2017-11-09T03:06:29.995Z,5.90
2017-11-09T03:08:58.513Z,5.90
2017-11-09T03:11:27.764Z,6.00
2017-11-09T03:13:56.236Z,6.00
2017-11-09T03:16:24.777Z,5.90
2017-11-09T03:18:56.256Z,5.90
2017-11-09T03:21:24.751Z,5.90
2017-11-09T03:23:53.221Z,6.00
2017-11-09T03:26:21.932Z,6.00
2017-11-09T03:28:50.416Z,6.00
2017-11-09T03:31:18.915Z,6.00
2017-11-09T03:33:47.384Z,5.90
2017-11-09T03:36:15.869Z,5.90
2017-11-09T03:38:44.348Z,5.90
2017-11-09T03:41:12.808Z,6.00
2017-11-09T03:43:41.296Z,6.00
2017-11-09T03:46:09.411Z,6.00
2017-11-09T03:48:37.888Z,6.00
2017-11-09T03:51:06.364Z,6.00
2017-11-09T03:53:34.861Z,6.00
2017-11-09T03:56:03.335Z,6.00
2017-11-09T03:58:31.845Z,5.90
2017-11-09T04:01:00.310Z,6.00
2017-11-09T04:03:30.095Z,5.90
2017-11-09T04:05:58.576Z,5.90
2017-11-09T04:08:27.112Z,5.90
2017-11-09T04:10:56.116Z,5.90
2017-11-09T04:13:25.384Z,5.90
2017-11-09T04:15:53.844Z,5.90
2017-11-09T04:18:22.305Z,5.90
2017-11-09T04:20:50.795Z,5.90
2017-11-09T04:23:19.271Z,6.00
2017-11-09T04:25:48.105Z,6.00
2017-11-09T04:28:17.877Z,5.90
2017-11-09T04:30:46.372Z,5.90
2017-11-09T04:33:14.831Z,5.80
2017-11-09T04:35:43.337Z,5.80
2017-11-09T04:38:11.803Z,5.80
2017-11-09T04:40:40.293Z,5.80
2017-11-09T04:43:08.751Z,5.90
2017-11-09T04:45:37.270Z,5.90
2017-11-09T04:48:05.752Z,5.90
2017-11-09T04:50:34.332Z,5.90
2017-11-09T04:53:02.824Z,5.90
2017-11-09T04:55:31.108Z,5.90
2017-11-09T04:57:59.596Z,5.90
2017-11-09T05:00:28.056Z,5.80
2017-11-09T05:02:56.536Z,5.80
2017-11-09T05:05:24.997Z,5.90
2017-11-09T05:07:53.462Z,5.90
2017-11-09T05:10:22.532Z,5.90
2017-11-09T05:12:51.789Z,5.90
2017-11-09T05:15:20.255Z,5.90
2017-11-09T05:17:48.729Z,6.00
2017-11-09T05:20:18.001Z,6.00
2017-11-09T05:22:46.472Z,5.90
2017-11-09T05:25:14.938Z,6.00
2017-11-09T05:27:43.512Z,6.00
2017-11-09T05:30:11.808Z,5.90
2017-11-09T05:32:40.291Z,5.90
2017-11-09T05:35:08.774Z,5.90
2017-11-09T05:37:38.280Z,5.90
2017-11-09T05:40:07.428Z,5.90
2017-11-09T05:42:36.685Z,6.00
2017-11-09T05:45:04.808Z,5.90
2017-11-09T05:47:34.549Z,5.90
2017-11-09T05:50:03.007Z,5.90
2017-11-09T05:52:31.542Z,5.90
2017-11-09T05:55:00.032Z,5.90
2017-11-09T05:57:28.508Z,5.90
2017-11-09T05:59:56.993Z,5.80
2017-11-09T06:02:25.563Z,5.90
2017-11-09T06:04:54.050Z,5.90
2017-11-09T06:07:23.529Z,5.80
2017-11-09T06:09:52.133Z,5.80
2017-11-09T06:12:20.613Z,5.90
2017-11-09T06:14:49.240Z,5.90
2017-11-09T06:17:17.735Z,6.00
2017-11-09T06:19:46.965Z,5.90
2017-11-09T06:22:15.460Z,5.90
2017-11-09T06:24:43.950Z,5.90
2017-11-09T06:27:12.426Z,5.90
2017-11-09T06:29:40.996Z,5.90
2017-11-09T06:32:09.504Z,5.90
2017-11-09T06:34:37.980Z,5.80
2017-11-09T06:37:06.527Z,5.90
2017-11-09T06:39:35.938Z,5.90
2017-11-09T06:42:04.397Z,5.80
2017-11-09T06:44:33.653Z,5.70
2017-11-09T06:47:02.133Z,5.70
2017-11-09T06:49:30.621Z,5.70
2017-11-09T06:51:59.114Z,5.60
2017-11-09T06:54:28.692Z,5.70
2017-11-09T06:56:57.162Z,5.60
2017-11-09T06:59:25.706Z,5.60
2017-11-09T07:01:54.473Z,5.60
2017-11-09T07:04:23.963Z,5.60
2017-11-09T07:06:52.432Z,5.60
2017-11-09T07:09:21.052Z,5.60
2017-11-09T07:11:49.613Z,5.60
2017-11-09T07:14:18.128Z,5.60
2017-11-09T07:16:46.704Z,5.60
2017-11-09T07:19:15.171Z,5.70
2017-11-09T07:21:43.321Z,5.80
2017-11-09T07:24:11.884Z,5.80
2017-11-09T07:26:41.139Z,5.80
2017-11-09T07:29:09.720Z,5.80
2017-11-09T07:31:38.225Z,5.80
2017-11-09T07:34:06.693Z,5.80
2017-11-09T07:36:35.158Z,5.80
2017-11-09T07:39:03.105Z,5.80
2017-11-09T07:41:31.576Z,5.80
2017-11-09T07:44:00.905Z,5.70
2017-11-09T07:46:29.410Z,5.60
2017-11-09T07:48:57.885Z,5.60
2017-11-09T07:51:26.456Z,5.60
2017-11-09T07:53:54.945Z,5.60
2017-11-09T07:56:23.444Z,5.60
2017-11-09T07:58:52.147Z,5.70
2017-11-09T08:01:20.855Z,5.70
2017-11-09T08:03:50.231Z,5.80
2017-11-09T08:06:18.701Z,5.80
2017-11-09T08:08:47.288Z,5.80
2017-11-09T08:11:15.753Z,5.90
2017-11-09T08:13:44.216Z,5.90
2017-11-09T08:16:12.701Z,6.00
2017-11-09T08:18:41.176Z,6.00
2017-11-09T08:21:09.696Z,6.00
2017-11-09T08:23:38.300Z,6.00
2017-11-09T08:26:07.454Z,6.10
2017-11-09T08:28:36.809Z,6.10
2017-11-09T08:31:07.736Z,6.10
2017-11-09T08:33:36.920Z,6.00
2017-11-09T08:36:05.260Z,6.10
2017-11-09T08:38:33.565Z,6.10
2017-11-09T08:41:01.843Z,6.10
2017-11-09T08:43:30.331Z,6.10
2017-11-09T08:45:58.817Z,6.10
2017-11-09T08:48:27.300Z,6.20
2017-11-09T08:50:55.784Z,6.10
2017-11-09T08:53:24.280Z,6.10
2017-11-09T08:55:52.932Z,6.20
2017-11-09T08:58:22.392Z,6.20
2017-11-09T09:00:50.877Z,6.20
2017-11-09T09:03:20.104Z,6.30
2017-11-09T09:05:48.821Z,6.20
2017-11-09T09:08:18.216Z,6.30
2017-11-09T09:10:46.585Z,6.30
2017-11-09T09:13:14.864Z,6.40
2017-11-09T09:15:43.172Z,6.40
2017-11-09T09:18:11.456Z,6.30
2017-11-09T09:20:55.533Z,6.30
2017-11-09T09:23:25.124Z,6.20
2017-11-09T09:26:00.010Z,6.30
2017-11-09T09:28:28.946Z,6.30
2017-11-09T09:30:57.258Z,6.40
2017-11-09T09:33:33.761Z,6.40
2017-11-09T09:36:14.023Z,6.30
2017-11-09T09:38:46.895Z,6.30
2017-11-09T09:41:15.176Z,6.30
2017-11-09T09:43:43.476Z,6.40
2017-11-09T09:46:11.748Z,6.30
2017-11-09T09:48:40.036Z,6.40
2017-11-09T09:51:08.559Z,6.60
2017-11-09T09:53:37.825Z,6.60
2017-11-09T09:56:06.312Z,6.50
2017-11-09T09:58:34.814Z,6.80
2017-11-09T10:01:03.128Z,6.80
2017-11-09T10:03:31.595Z,6.80
2017-11-09T10:06:00.832Z,6.80
2017-11-09T10:08:29.311Z,6.80
2017-11-09T10:10:58.008Z,6.80
2017-11-09T10:13:26.476Z,6.80
2017-11-09T10:15:54.994Z,6.80
2017-11-09T10:18:24.552Z,6.80
2017-11-09T10:20:53.353Z,6.70
2017-11-09T10:23:21.876Z,6.70
2017-11-09T10:25:51.864Z,6.70
2017-11-09T10:28:20.389Z,6.70
2017-11-09T10:30:48.880Z,6.70
2017-11-09T10:33:21.257Z,6.70
2017-11-09T10:35:50.510Z,6.70
2017-11-09T10:38:18.990Z,6.70
2017-11-09T10:40:47.474Z,6.80
2017-11-09T10:43:15.936Z,6.90
2017-11-09T10:45:44.421Z,6.80
2017-11-09T10:48:12.905Z,7.00
2017-11-09T10:50:41.376Z,7.10
2017-11-09T10:53:10.117Z,7.10
2017-11-09T10:55:38.576Z,7.10
2017-11-09T10:58:07.063Z,7.20
2017-11-09T11:00:40.887Z,7.20
2017-11-09T11:03:09.010Z,7.10
2017-11-09T11:05:37.151Z,7.10
2017-11-09T11:08:05.308Z,7.10
2017-11-09T11:10:33.868Z,6.90
2017-11-09T11:13:02.325Z,6.90
2017-11-09T11:15:30.812Z,6.90
2017-11-09T11:17:59.361Z,6.90
2017-11-09T11:20:27.852Z,6.90
2017-11-09T11:22:57.083Z,6.90
2017-11-09T11:25:25.554Z,6.90
2017-11-09T11:27:54.785Z,7.00
2017-11-09T11:30:23.271Z,7.00
2017-11-09T11:32:51.772Z,7.10
2017-11-09T11:35:20.256Z,7.00
2017-11-09T11:37:48.717Z,7.00
2017-11-09T11:40:17.186Z,7.00
2017-11-09T11:42:45.665Z,7.00
2017-11-09T11:45:14.200Z,6.90
2017-11-09T11:47:43.449Z,7.10
2017-11-09T11:50:12.008Z,7.10
2017-11-09T11:52:41.312Z,7.00
2017-11-09T11:55:10.568Z,7.20
2017-11-09T11:57:39.060Z,7.10
2017-11-09T12:00:07.545Z,7.30
2017-11-09T12:02:36.013Z,7.50
2017-11-09T12:05:04.782Z,7.60
2017-11-09T12:07:33.284Z,7.70
2017-11-09T12:10:01.765Z,7.70
2017-11-09T12:12:30.440Z,7.70
2017-11-09T12:14:58.925Z,7.80
2017-11-09T12:17:27.568Z,7.80
2017-11-09T12:19:57.036Z,7.70
2017-11-09T12:22:25.538Z,7.70
2017-11-09T12:24:54.007Z,7.80
2017-11-09T12:27:22.504Z,7.70
2017-11-09T12:29:50.996Z,7.70
2017-11-09T12:32:20.348Z,7.80
2017-11-09T12:34:48.831Z,7.70
2017-11-09T12:37:17.324Z,7.70
2017-11-09T12:39:45.809Z,7.70
2017-11-09T12:42:14.304Z,7.60
2017-11-09T12:44:42.870Z,7.80
2017-11-09T12:47:11.417Z,7.80
2017-11-09T12:49:39.896Z,7.70
2017-11-09T12:52:09.151Z,7.70
2017-11-09T12:54:37.632Z,7.60
2017-11-09T12:57:06.101Z,7.60
2017-11-09T12:59:35.424Z,7.50
2017-11-09T13:02:03.889Z,7.50
2017-11-09T13:04:32.384Z,7.30
2017-11-09T13:07:00.850Z,7.20
2017-11-09T13:09:29.332Z,7.30
2017-11-09T13:11:57.629Z,7.20
2017-11-09T13:14:26.048Z,7.10
2017-11-09T13:16:54.504Z,7.20
2017-11-09T13:19:22.795Z,7.20
2017-11-09T13:21:52.038Z,7.20
2017-11-09T13:24:20.528Z,7.10
2017-11-09T13:26:48.492Z,7.10
2017-11-09T13:29:16.989Z,7.20
2017-11-09T13:31:45.277Z,7.30
2017-11-09T13:34:13.757Z,7.20
2017-11-09T13:36:42.248Z,7.20
2017-11-09T13:39:10.709Z,7.20
2017-11-09T13:41:39.200Z,7.20
2017-11-09T13:44:07.676Z,7.20
2017-11-09T13:46:36.182Z,7.20
2017-11-09T13:49:04.689Z,7.20
2017-11-09T13:51:33.932Z,7.20
2017-11-09T13:54:02.427Z,7.10
2017-11-09T13:56:30.917Z,7.10
2017-11-09T13:58:59.393Z,7.10
2017-11-09T14:01:27.969Z,7.10
2017-11-09T14:03:56.493Z,7.10
2017-11-09T14:06:25.802Z,7.10
2017-11-09T14:08:55.052Z,7.10
2017-11-09T14:11:23.524Z,7.00
2017-11-09T14:13:52.012Z,7.00
2017-11-09T14:16:20.480Z,7.00
2017-11-09T14:18:48.977Z,7.00
2017-11-09T14:21:17.440Z,6.90
2017-11-09T14:23:45.744Z,6.80
2017-11-09T14:26:14.243Z,6.80
2017-11-09T14:28:43.536Z,6.70
2017-11-09T14:31:12.020Z,6.70
2017-11-09T14:33:40.544Z,6.60
2017-11-09T14:36:09.820Z,6.70
2017-11-09T14:38:38.413Z,6.70
2017-11-09T14:41:06.889Z,6.70
2017-11-09T14:43:35.400Z,6.60
2017-11-09T14:46:04.138Z,6.60
2017-11-09T14:48:32.621Z,6.60
2017-11-09T14:51:01.118Z,6.60
2017-11-09T14:53:29.612Z,6.60
2017-11-09T14:55:58.349Z,6.70
2017-11-09T14:58:26.833Z,6.60
2017-11-09T15:00:55.316Z,6.70
2017-11-09T15:03:23.810Z,6.70
2017-11-09T15:05:53.129Z,6.70
2017-11-09T15:08:21.437Z,6.70
2017-11-09T15:10:49.744Z,6.70
2017-11-09T15:13:19.072Z,6.70
2017-11-09T15:15:53.148Z,6.70
2017-11-09T15:18:22.433Z,6.80
2017-11-09T15:20:50.940Z,6.70
2017-11-09T15:23:19.995Z,6.70
2017-11-09T15:25:49.290Z,6.70
2017-11-09T15:28:17.588Z,6.70
2017-11-09T15:30:45.876Z,6.70
2017-11-09T15:33:15.824Z,6.60
2017-11-09T15:35:49.874Z,6.60
2017-11-09T15:38:18.364Z,6.60
2017-11-09T15:40:46.904Z,6.60
2017-11-09T15:43:15.394Z,6.60
2017-11-09T15:45:43.879Z,6.60
2017-11-09T15:48:12.805Z,6.70
2017-11-09T15:50:41.321Z,6.60
2017-11-09T15:53:10.628Z,6.60
2017-11-09T15:55:39.900Z,6.50
2017-11-09T15:58:08.416Z,6.50
2017-11-09T16:00:37.688Z,6.60
2017-11-09T16:03:06.193Z,6.60
2017-11-09T16:05:35.435Z,6.60
2017-11-09T16:08:05.940Z,6.60
2017-11-09T16:10:35.227Z,6.50
2017-11-09T16:13:04.479Z,6.50
2017-11-09T16:15:32.951Z,6.40
2017-11-09T16:18:01.460Z,6.60
2017-11-09T16:20:31.880Z,6.60
2017-11-09T16:23:01.276Z,6.50
2017-11-09T16:25:29.752Z,6.50
2017-11-09T16:27:58.329Z,6.50
2017-11-09T16:30:27.077Z,6.50
2017-11-09T16:32:56.486Z,6.60
2017-11-09T16:35:25.726Z,6.50
2017-11-09T16:37:54.223Z,6.40
2017-11-09T16:40:24.073Z,6.50
2017-11-09T16:42:53.375Z,6.50
2017-11-09T16:45:21.911Z,6.50
2017-11-09T16:47:51.444Z,6.50
2017-11-09T16:50:19.955Z,6.40
2017-11-09T16:52:52.175Z,6.50
2017-11-09T16:55:20.761Z,6.40
2017-11-09T16:57:49.246Z,6.50
2017-11-09T17:00:17.733Z,6.50
2017-11-09T17:02:46.227Z,6.50
2017-11-09T17:05:14.883Z,6.50
2017-11-09T17:07:43.358Z,6.50
2017-11-09T17:10:12.336Z,6.60
2017-11-09T17:12:42.048Z,6.60
2017-11-09T17:15:11.140Z,6.50
2017-11-09T17:17:40.874Z,6.40
2017-11-09T17:20:10.037Z,6.40
2017-11-09T17:22:39.762Z,6.50
2017-11-09T17:25:09.458Z,6.50
2017-11-09T17:27:39.273Z,6.50
2017-11-09T17:30:08.981Z,6.40
2017-11-09T17:32:38.812Z,6.50
2017-11-09T17:35:08.624Z,6.50
2017-11-09T17:37:38.321Z,6.50
2017-11-09T17:40:09.575Z,6.50
2017-11-09T17:42:42.276Z,6.60
2017-11-09T17:45:11.456Z,6.50
2017-11-09T17:47:41.720Z,6.50
2017-11-09T17:50:10.685Z,6.40
2017-11-09T17:52:40.572Z,6.40
2017-11-09T17:55:10.418Z,6.40
2017-11-09T17:57:40.309Z,6.40
2017-11-09T18:00:14.897Z,6.30
2017-11-09T18:02:44.641Z,6.40
2017-11-09T18:05:13.538Z,6.40
2017-11-09T18:07:42.803Z,6.40
2017-11-09T18:10:11.729Z,6.40
2017-11-09T18:12:41.668Z,6.40
2017-11-09T18:15:10.688Z,6.40
2017-11-09T18:17:42.320Z,6.50
2017-11-09T18:20:12.013Z,6.40
2017-11-09T18:22:43.864Z,6.40
2017-11-09T18:25:13.116Z,6.50
2017-11-09T18:27:42.428Z,6.40
2017-11-09T18:30:11.578Z,6.50
2017-11-09T18:32:40.681Z,6.50
2017-11-09T18:35:10.372Z,6.50
2017-11-09T18:37:39.504Z,6.40
2017-11-09T18:40:08.481Z,6.50
2017-11-09T18:42:38.308Z,6.40
2017-11-09T18:45:07.827Z,6.40
2017-11-09T18:47:36.761Z,6.30
2017-11-09T18:50:06.512Z,6.40
2017-11-09T18:52:36.049Z,6.50
2017-11-09T18:55:05.146Z,6.40
2017-11-09T18:57:34.109Z,6.50
2017-11-09T19:00:07.693Z,6.50
2017-11-09T19:02:36.924Z,6.50
2017-11-09T19:05:06.064Z,6.40
2017-11-09T19:07:35.055Z,6.40
2017-11-09T19:10:03.940Z,6.40
2017-11-09T19:12:33.696Z,6.40
2017-11-09T19:15:05.652Z,6.40
2017-11-09T19:17:35.869Z,6.40
2017-11-09T19:20:04.916Z,6.50
2017-11-09T19:22:34.184Z,6.50
2017-11-09T19:25:05.299Z,6.50
2017-11-09T19:27:34.654Z,6.40
2017-11-09T19:30:03.922Z,6.50
2017-11-09T19:32:33.816Z,6.50
2017-11-09T19:35:03.534Z,6.40
2017-11-09T19:37:32.906Z,6.50
2017-11-09T19:40:02.490Z,6.50
2017-11-09T19:42:32.729Z,6.50
2017-11-09T19:45:02.625Z,6.50
2017-11-09T19:47:33.344Z,6.50
2017-11-09T19:50:03.762Z,6.50
2017-11-09T19:52:33.823Z,6.50
2017-11-09T19:55:04.069Z,6.50
2017-11-09T19:57:37.173Z,6.60
2017-11-09T20:00:06.933Z,6.60
2017-11-09T20:02:37.233Z,6.50
2017-11-09T20:05:06.769Z,6.50
2017-11-09T20:07:37.126Z,6.60
2017-11-09T20:10:07.384Z,6.50
2017-11-09T20:12:36.589Z,6.60
2017-11-09T20:15:06.016Z,6.50
2017-11-09T20:17:39.860Z,6.50
2017-11-09T20:20:08.926Z,6.50
2017-11-09T20:22:40.004Z,6.60
2017-11-09T20:25:09.465Z,6.50
2017-11-09T20:27:42.609Z,6.50
2017-11-09T20:30:12.049Z,6.50
2017-11-09T20:32:46.704Z,6.40
2017-11-09T20:35:17.702Z,6.40
2017-11-09T20:37:47.798Z,6.30
2017-11-09T20:40:17.238Z,6.30
2017-11-09T20:42:46.455Z,6.30
2017-11-09T20:45:17.297Z,6.30
2017-11-09T20:47:48.267Z,6.30
2017-11-09T20:50:21.089Z,6.20
2017-11-09T20:52:51.176Z,6.30
2017-11-09T20:55:21.909Z,6.40
2017-11-09T20:57:52.624Z,6.40
2017-11-09T21:00:24.284Z,6.30
2017-11-09T21:02:53.746Z,6.30
2017-11-09T21:05:23.113Z,6.30
2017-11-09T21:07:52.520Z,6.30
2017-11-09T21:10:21.542Z,6.30
2017-11-09T21:12:50.375Z,6.30
2017-11-09T21:15:19.878Z,6.30
2017-11-09T21:17:49.403Z,6.20
2017-11-09T21:20:17.923Z,6.20
2017-11-09T21:22:46.529Z,6.20
2017-11-09T21:25:15.032Z,6.20
2017-11-09T21:27:44.271Z,6.10
2017-11-09T21:30:12.795Z,6.00
2017-11-09T21:32:41.362Z,6.10
2017-11-09T21:35:10.072Z,6.10
2017-11-09T21:37:38.639Z,6.00
2017-11-09T21:40:07.608Z,6.00
2017-11-09T21:42:39.166Z,6.00
2017-11-09T21:45:07.666Z,6.00
2017-11-09T21:47:36.128Z,6.00
2017-11-09T21:50:04.598Z,6.00
2017-11-09T21:52:33.133Z,6.00
2017-11-09T21:55:01.682Z,6.00
2017-11-09T21:57:30.740Z,6.00
2017-11-09T22:00:01.089Z,6.00
2017-11-09T22:02:30.181Z,6.00
2017-11-09T22:04:59.243Z,6.00
2017-11-09T22:07:29.072Z,6.00
2017-11-09T22:09:58.337Z,6.00
2017-11-09T22:12:26.835Z,5.90
2017-11-09T22:14:55.410Z,6.00
2017-11-09T22:17:23.909Z,5.90
2017-11-09T22:19:52.361Z,5.90
2017-11-09T22:22:20.894Z,5.90
2017-11-09T22:24:49.648Z,5.90
2017-11-09T22:27:18.117Z,5.90
2017-11-09T22:29:46.597Z,5.90
2017-11-09T22:32:15.085Z,5.90
2017-11-09T22:34:43.672Z,5.90
2017-11-09T22:37:12.168Z,5.90
2017-11-09T22:39:40.664Z,5.90
2017-11-09T22:42:09.973Z,5.90
2017-11-09T22:44:39.265Z,5.90
2017-11-09T22:47:08.507Z,5.90
2017-11-09T22:49:36.997Z,5.90
2017-11-09T22:52:05.498Z,5.90
2017-11-09T22:54:33.996Z,5.90
2017-11-09T22:57:02.494Z,5.90
2017-11-09T22:59:32.027Z,5.90
2017-11-09T23:02:00.501Z,5.80
2017-11-09T23:04:29.740Z,5.80
2017-11-09T23:06:57.661Z,5.80
2017-11-09T23:09:26.896Z,5.90
2017-11-09T23:11:55.447Z,5.80
2017-11-09T23:14:24.528Z,5.90
2017-11-09T23:16:53.008Z,5.80
2017-11-09T23:19:21.537Z,5.90
2017-11-09T23:21:49.852Z,5.90
2017-11-09T23:24:18.358Z,5.90
2017-11-09T23:26:46.824Z,5.90
2017-11-09T23:29:15.325Z,5.90
2017-11-09T23:31:43.808Z,5.90
2017-11-09T23:34:12.310Z,5.90
2017-11-09T23:36:41.512Z,5.90
2017-11-09T23:39:10.752Z,5.90
2017-11-09T23:41:39.212Z,5.80
2017-11-09T23:44:07.737Z,5.90
2017-11-09T23:46:36.212Z,5.90
2017-11-09T23:49:09.599Z,5.90
2017-11-09T23:51:38.063Z,5.90
2017-11-09T23:54:06.584Z,6.00
2017-11-09T23:56:35.095Z,6.00
2017-11-09T23:59:04.325Z,6.00
